createdAt,value
2022-08-22T00:00:32.280Z,22.80
2022-08-22T00:03:19.111Z,23.00
2022-08-22T00:06:07.731Z,25.20
2022-08-22T00:08:46.192Z,24.00
2022-08-22T00:11:19.812Z,24.00
2022-08-22T00:14:01.259Z,23.80
2022-08-22T00:16:37.922Z,26.30
2022-08-22T00:19:15.781Z,26.10
2022-08-22T00:21:49.280Z,25.70
2022-08-22T00:24:24.585Z,23.90
2022-08-22T00:27:01.089Z,24.30
2022-08-22T00:29:34.689Z,22.50
2022-08-22T00:32:12.482Z,23.70
2022-08-22T00:34:51.718Z,21.70
2022-08-22T00:37:27.678Z,23.60
2022-08-22T00:40:03.602Z,25.10
2022-08-22T00:42:59.019Z,21.10
2022-08-22T00:45:53.395Z,21.40
2022-08-22T00:48:55.135Z,20.00
2022-08-22T00:51:50.331Z,19.60
2022-08-22T00:54:25.755Z,21.50
2022-08-22T00:57:07.990Z,20.40
2022-08-22T00:59:51.920Z,24.20
2022-08-22T01:02:33.193Z,21.50
2022-08-22T01:05:17.516Z,20.80
2022-08-22T01:08:06.704Z,24.00
2022-08-22T01:10:50.532Z,27.70
2022-08-22T01:13:36.945Z,29.90
2022-08-22T01:16:37.113Z,29.70
2022-08-22T01:19:22.522Z,32.40
2022-08-22T01:22:36.033Z,27.00
2022-08-22T01:25:57.018Z,28.00
2022-08-22T01:28:49.598Z,29.00
2022-08-22T01:31:53.046Z,29.80
2022-08-22T01:34:33.853Z,29.50
2022-08-22T01:37:35.259Z,31.60
2022-08-22T01:40:53.964Z,27.40
2022-08-22T01:43:59.181Z,28.30
2022-08-22T01:46:32.684Z,28.60
2022-08-22T01:49:11.871Z,26.90
2022-08-22T01:51:47.272Z,31.90
2022-08-22T01:54:26.566Z,35.10
2022-08-22T01:57:02.593Z,32.30
2022-08-22T01:59:42.245Z,33.30
2022-08-22T02:02:32.353Z,31.60
2022-08-22T02:05:07.918Z,28.10
2022-08-22T02:07:46.921Z,27.30
2022-08-22T02:10:21.242Z,26.20
2022-08-22T02:12:58.609Z,28.30
2022-08-22T02:15:32.129Z,26.40
2022-08-22T02:18:14.135Z,25.70
2022-08-22T02:20:58.393Z,26.50
2022-08-22T02:23:31.678Z,25.40
2022-08-22T02:26:11.463Z,22.20
2022-08-22T02:28:56.702Z,26.20
2022-08-22T02:31:38.191Z,25.40
2022-08-22T02:34:24.924Z,24.90
2022-08-22T02:37:03.961Z,24.50
2022-08-22T02:39:38.567Z,26.70
2022-08-22T02:42:18.662Z,29.80
2022-08-22T02:44:56.927Z,30.00
2022-08-22T02:47:32.935Z,26.10
2022-08-22T02:50:12.797Z,29.50
2022-08-22T02:52:52.890Z,30.00
2022-08-22T02:55:37.222Z,30.60
2022-08-22T02:58:11.076Z,28.30
2022-08-22T03:00:51.485Z,30.30
2022-08-22T03:03:27.541Z,29.10
2022-08-22T03:06:04.519Z,28.00
2022-08-22T03:08:38.105Z,25.10
2022-08-22T03:11:19.398Z,25.40
2022-08-22T03:13:57.420Z,28.00
2022-08-22T03:16:34.099Z,31.00
2022-08-22T03:19:13.222Z,30.40
2022-08-22T03:21:56.034Z,31.00
2022-08-22T03:24:31.024Z,31.50
2022-08-22T03:27:06.003Z,34.00
2022-08-22T03:29:39.116Z,31.50
2022-08-22T03:32:15.898Z,36.20
2022-08-22T03:35:02.080Z,35.20
2022-08-22T03:37:40.657Z,35.10
2022-08-22T03:40:31.814Z,32.80
2022-08-22T03:43:13.212Z,25.50
2022-08-22T03:46:17.475Z,28.80
2022-08-22T03:49:11.647Z,27.00
2022-08-22T03:51:56.715Z,28.70
2022-08-22T03:54:50.009Z,29.50
2022-08-22T03:57:48.523Z,32.00
2022-08-22T04:00:33.775Z,28.70
2022-08-22T04:03:22.082Z,29.60
2022-08-22T04:06:03.281Z,26.00
2022-08-22T04:08:53.912Z,25.10
2022-08-22T04:11:47.553Z,25.20
2022-08-22T04:14:29.431Z,18.90
2022-08-22T04:17:27.937Z,17.40
2022-08-22T04:20:13.268Z,20.00
2022-08-22T04:23:14.250Z,17.20
2022-08-22T04:25:46.689Z,17.80
2022-08-22T04:28:21.093Z,18.80
2022-08-22T04:30:54.286Z,19.20
2022-08-22T04:33:28.142Z,18.70
2022-08-22T04:36:04.427Z,16.60
2022-08-22T04:38:38.164Z,16.10
2022-08-22T04:41:10.907Z,17.20
2022-08-22T04:43:43.176Z,19.10
2022-08-22T04:46:17.592Z,17.00
2022-08-22T04:48:52.864Z,16.00
2022-08-22T04:51:26.851Z,16.20
2022-08-22T04:54:21.809Z,18.20
2022-08-22T04:57:01.872Z,19.00
2022-08-22T04:59:33.700Z,22.10
2022-08-22T05:02:08.855Z,23.20
2022-08-22T05:04:42.843Z,27.50
2022-08-22T05:07:16.331Z,29.80
2022-08-22T05:09:49.438Z,33.90
2022-08-22T05:12:22.753Z,33.60
2022-08-22T05:14:55.561Z,24.80
2022-08-22T05:17:28.086Z,21.60
2022-08-22T05:20:04.108Z,21.60
2022-08-22T05:22:36.967Z,23.60
2022-08-22T05:25:11.239Z,21.80
2022-08-22T05:27:45.711Z,17.30
2022-08-22T05:30:22.497Z,15.60
2022-08-22T05:32:56.652Z,15.90
2022-08-22T05:35:32.298Z,16.80
2022-08-22T05:38:03.894Z,15.60
2022-08-22T05:43:09.540Z,15.80
2022-08-22T05:45:41.621Z,15.20
2022-08-22T05:48:16.754Z,15.20
2022-08-22T05:50:51.151Z,16.10
2022-08-22T05:53:25.577Z,15.20
2022-08-22T05:56:00.469Z,15.90
2022-08-22T05:58:57.176Z,15.30
2022-08-22T06:01:32.222Z,12.70
2022-08-22T06:04:08.029Z,13.90
2022-08-22T06:06:41.592Z,13.60
2022-08-22T06:09:16.440Z,13.60
2022-08-22T06:11:52.164Z,13.70
2022-08-22T06:14:30.220Z,12.50
2022-08-22T06:17:07.803Z,11.50
2022-08-22T06:19:41.547Z,11.50
2022-08-22T06:22:13.811Z,12.00
2022-08-22T06:24:50.487Z,10.50
2022-08-22T06:29:59.144Z,14.60
2022-08-22T06:32:58.447Z,13.40
2022-08-22T06:35:29.346Z,11.00
2022-08-22T06:38:01.635Z,13.30
2022-08-22T06:40:33.122Z,11.60
2022-08-22T06:43:04.728Z,8.70
2022-08-22T06:48:17.115Z,8.10
2022-08-22T06:50:50.208Z,8.20
2022-08-22T06:53:23.183Z,8.20
2022-08-22T06:55:56.343Z,8.10
2022-08-22T06:58:30.916Z,8.40
2022-08-22T07:01:15.766Z,7.00
2022-08-22T07:03:50.662Z,9.80
2022-08-22T07:06:28.743Z,9.00
2022-08-22T07:09:00.453Z,12.40
2022-08-22T07:11:40.770Z,15.10
2022-08-22T07:14:13.902Z,12.30
2022-08-22T07:16:48.407Z,10.10
2022-08-22T07:19:29.408Z,9.90
2022-08-22T07:22:01.619Z,10.20
2022-08-22T07:24:33.994Z,8.70
2022-08-22T07:27:13.368Z,7.50
2022-08-22T07:29:50.861Z,8.80
2022-08-22T07:32:26.163Z,13.40
2022-08-22T07:35:07.788Z,9.00
2022-08-22T07:37:51.810Z,7.90
2022-08-22T07:40:27.372Z,7.80
2022-08-22T07:43:02.501Z,6.00
2022-08-22T07:45:38.800Z,5.90
2022-08-22T07:48:25.526Z,8.70
2022-08-22T07:51:04.480Z,7.50
2022-08-22T07:53:41.357Z,6.80
2022-08-22T07:56:17.224Z,7.00
2022-08-22T07:58:50.235Z,6.00
2022-08-22T08:01:23.670Z,6.60
2022-08-22T08:03:57.617Z,8.10
2022-08-22T08:06:29.431Z,6.60
2022-08-22T08:09:01.180Z,6.20
2022-08-22T08:14:06.707Z,5.60
2022-08-22T08:16:44.990Z,4.90
2022-08-22T08:19:17.101Z,7.60
2022-08-22T08:21:53.762Z,6.50
2022-08-22T08:24:28.256Z,7.00
2022-08-22T08:27:26.918Z,5.90
2022-08-22T08:29:59.488Z,6.40
2022-08-22T08:32:32.166Z,6.00
2022-08-22T08:35:08.131Z,8.70
2022-08-22T08:37:45.298Z,8.30
2022-08-22T08:40:23.437Z,8.10
2022-08-22T08:43:20.182Z,6.40
2022-08-22T08:46:19.290Z,5.40
2022-08-22T08:49:11.218Z,4.40
2022-08-22T08:51:56.787Z,4.90
2022-08-22T08:54:40.690Z,4.30
2022-08-22T08:57:16.634Z,4.50
2022-08-22T08:59:50.825Z,4.40
2022-08-22T09:02:42.624Z,6.20
2022-08-22T09:05:45.380Z,5.80
2022-08-22T09:08:38.617Z,6.30
2022-08-22T09:11:31.250Z,5.90
2022-08-22T09:14:12.652Z,6.10
2022-08-22T09:17:02.759Z,6.20
2022-08-22T09:20:15.467Z,6.60
2022-08-22T09:23:20.372Z,5.70
2022-08-22T09:25:53.550Z,6.00
2022-08-22T09:28:31.540Z,7.00
2022-08-22T09:31:47.446Z,5.70
2022-08-22T09:34:25.979Z,5.30
2022-08-22T09:37:09.865Z,6.20
2022-08-22T09:39:52.414Z,6.30
2022-08-22T09:42:29.212Z,5.90
2022-08-22T09:45:36.207Z,6.40
2022-08-22T09:48:13.928Z,6.00
2022-08-22T09:50:52.698Z,4.60
2022-08-22T09:53:50.144Z,4.60
2022-08-22T09:56:26.092Z,6.10
2022-08-22T09:59:02.733Z,6.00
2022-08-22T10:01:39.279Z,6.70
2022-08-22T10:04:44.109Z,5.40
2022-08-22T10:10:01.937Z,6.50
2022-08-22T10:12:36.285Z,5.80
2022-08-22T10:15:16.220Z,7.90
2022-08-22T10:17:54.261Z,7.30
2022-08-22T10:20:31.560Z,6.30
2022-08-22T10:23:12.763Z,7.60
2022-08-22T10:25:48.318Z,9.10
2022-08-22T10:28:24.543Z,9.10
2022-08-22T10:31:08.760Z,6.90
2022-08-22T10:33:42.170Z,6.50
2022-08-22T10:36:18.026Z,8.10
2022-08-22T10:38:52.261Z,11.20
2022-08-22T10:41:31.683Z,12.10
2022-08-22T10:44:04.921Z,10.90
2022-08-22T10:46:43.885Z,8.50
2022-08-22T10:49:19.869Z,8.70
2022-08-22T10:51:58.362Z,6.60
2022-08-22T10:54:42.766Z,4.70
2022-08-22T10:57:23.016Z,3.90
2022-08-22T10:59:57.509Z,3.90
2022-08-22T11:02:39.216Z,4.30
2022-08-22T11:05:33.323Z,3.80
2022-08-22T11:08:27.876Z,3.40
2022-08-22T11:11:20.165Z,3.20
2022-08-22T11:14:03.588Z,4.00
2022-08-22T11:16:43.615Z,3.40
2022-08-22T11:19:18.311Z,4.00
2022-08-22T11:21:57.141Z,3.10
2022-08-22T11:25:11.302Z,4.30
2022-08-22T11:27:48.245Z,4.30
2022-08-22T11:30:22.227Z,4.30
2022-08-22T11:33:17.996Z,4.40
2022-08-22T11:36:00.581Z,4.50
2022-08-22T11:38:38.834Z,4.80
2022-08-22T11:41:14.290Z,4.20
2022-08-22T11:43:58.953Z,4.60
2022-08-22T11:46:33.605Z,5.30
2022-08-22T11:49:33.068Z,5.50
2022-08-22T11:52:15.400Z,6.80
2022-08-22T11:55:03.502Z,5.00
2022-08-22T11:57:36.767Z,5.40
2022-08-22T12:00:32.333Z,5.60
2022-08-22T12:03:16.565Z,6.00
2022-08-22T12:05:50.381Z,5.00
2022-08-22T12:08:46.556Z,4.50
2022-08-22T12:11:21.349Z,5.00
2022-08-22T12:14:03.942Z,5.60
2022-08-22T12:16:41.612Z,4.90
2022-08-22T12:19:22.866Z,5.00
2022-08-22T12:22:07.331Z,4.60
2022-08-22T12:24:45.713Z,3.70
2022-08-22T12:27:55.428Z,3.30
2022-08-22T12:30:30.118Z,3.00
2022-08-22T12:33:39.923Z,3.40
2022-08-22T12:36:29.017Z,3.50
2022-08-22T12:39:20.599Z,3.50
2022-08-22T12:42:21.603Z,3.50
2022-08-22T12:45:01.995Z,3.70
2022-08-22T12:47:37.849Z,3.20
2022-08-22T12:50:25.240Z,3.20
2022-08-22T12:53:19.967Z,2.90
2022-08-22T12:56:06.871Z,3.30
2022-08-22T12:58:51.596Z,3.20
2022-08-22T13:01:33.707Z,3.50
2022-08-22T13:04:08.431Z,3.60
2022-08-22T13:06:53.289Z,3.20
2022-08-22T13:09:30.566Z,2.60
2022-08-22T13:12:05.920Z,3.60
2022-08-22T13:14:37.994Z,3.20
2022-08-22T13:17:23.782Z,2.90
2022-08-22T13:20:03.381Z,2.90
2022-08-22T13:22:36.446Z,3.10
2022-08-22T13:25:25.639Z,3.50
2022-08-22T13:27:59.375Z,3.20
2022-08-22T13:30:34.744Z,3.40
2022-08-22T13:33:11.161Z,2.90
2022-08-22T13:35:51.592Z,3.10
2022-08-22T13:40:58.662Z,2.80
2022-08-22T13:43:31.456Z,2.30
2022-08-22T13:46:04.841Z,2.60
2022-08-22T13:48:50.215Z,3.20
2022-08-22T13:51:27.988Z,3.00
2022-08-22T13:54:10.772Z,2.60
2022-08-22T13:56:50.499Z,2.70
2022-08-22T13:59:47.464Z,3.20
2022-08-22T14:02:23.837Z,3.50
2022-08-22T14:05:06.778Z,3.00
2022-08-22T14:07:39.963Z,2.90
2022-08-22T14:10:15.505Z,3.30
2022-08-22T14:13:05.841Z,3.00
2022-08-22T14:15:45.497Z,3.20
2022-08-22T14:18:20.432Z,2.80
2022-08-22T14:21:22.191Z,3.90
2022-08-22T14:23:56.245Z,2.30
2022-08-22T14:26:33.002Z,2.10
2022-08-22T14:29:09.760Z,2.40
2022-08-22T14:31:41.500Z,3.10
2022-08-22T14:34:14.798Z,3.10
2022-08-22T14:36:50.674Z,2.80
2022-08-22T14:39:27.968Z,2.40
2022-08-22T14:42:04.119Z,2.60
2022-08-22T14:44:38.043Z,3.70
2022-08-22T14:47:32.572Z,2.80
2022-08-22T14:50:11.282Z,3.80
2022-08-22T14:52:45.600Z,2.90
2022-08-22T14:55:23.097Z,2.60
2022-08-22T14:57:56.899Z,2.60
2022-08-22T15:00:31.532Z,2.50
2022-08-22T15:03:22.511Z,3.10
2022-08-22T15:05:55.096Z,3.20
2022-08-22T15:08:33.147Z,3.20
2022-08-22T15:11:26.223Z,2.90
2022-08-22T15:14:03.502Z,2.40
2022-08-22T15:16:37.757Z,3.20
2022-08-22T15:19:27.244Z,2.60
2022-08-22T15:22:13.540Z,3.00
2022-08-22T15:24:47.267Z,3.10
2022-08-22T15:27:21.644Z,3.00
2022-08-22T15:29:55.931Z,3.70
2022-08-22T15:32:31.068Z,3.50
2022-08-22T15:35:08.881Z,4.10
2022-08-22T15:37:56.433Z,3.20
2022-08-22T15:40:40.479Z,4.50
2022-08-22T15:43:20.532Z,4.40
2022-08-22T15:45:54.191Z,4.50
2022-08-22T15:48:31.383Z,6.80
2022-08-22T15:51:05.014Z,6.30
2022-08-22T15:54:02.937Z,7.20
2022-08-22T15:57:06.896Z,5.90
2022-08-22T15:59:47.981Z,5.20
2022-08-22T16:02:35.187Z,4.80
2022-08-22T16:05:24.409Z,5.70
2022-08-22T16:08:04.132Z,5.10
2022-08-22T16:10:38.817Z,5.30
2022-08-22T16:13:35.063Z,4.70
2022-08-22T16:16:12.317Z,5.40
2022-08-22T16:19:20.891Z,4.80
2022-08-22T16:22:12.749Z,5.60
2022-08-22T16:25:02.665Z,5.50
2022-08-22T16:27:34.610Z,5.60
2022-08-22T16:30:11.969Z,5.20
2022-08-22T16:32:49.769Z,5.80
2022-08-22T16:35:51.877Z,7.30
2022-08-22T16:38:28.077Z,6.80
2022-08-22T16:40:59.744Z,14.40
2022-08-22T16:43:31.403Z,19.10
2022-08-22T16:46:03.885Z,22.80
2022-08-22T16:48:37.905Z,35.00
2022-08-22T16:51:18.691Z,37.70
2022-08-22T16:54:09.158Z,32.20
2022-08-22T16:56:47.537Z,29.70
2022-08-22T16:59:45.432Z,21.70
2022-08-22T17:02:43.658Z,14.90
2022-08-22T17:05:42.864Z,11.30
2022-08-22T17:08:23.774Z,9.90
2022-08-22T17:11:02.615Z,9.40
2022-08-22T17:13:42.480Z,9.00
2022-08-22T17:16:25.124Z,8.60
2022-08-22T17:19:05.145Z,9.30
2022-08-22T17:21:41.662Z,12.60
2022-08-22T17:24:32.425Z,14.30
2022-08-22T17:27:09.623Z,18.20
2022-08-22T17:29:49.139Z,19.90
2022-08-22T17:32:25.857Z,20.40
2022-08-22T17:35:03.320Z,21.40
2022-08-22T17:37:41.368Z,22.70
2022-08-22T17:40:27.902Z,22.40
2022-08-22T17:43:27.357Z,14.10
2022-08-22T17:46:15.022Z,13.10
2022-08-22T17:48:48.457Z,10.60
2022-08-22T17:51:28.442Z,10.00
2022-08-22T17:54:02.919Z,13.60
2022-08-22T17:56:40.707Z,15.90
2022-08-22T17:59:16.048Z,18.40
2022-08-22T18:01:56.976Z,16.50
2022-08-22T18:04:32.609Z,15.40
2022-08-22T18:07:36.190Z,15.80
2022-08-22T18:10:14.598Z,12.80
2022-08-22T18:12:49.632Z,9.60
2022-08-22T18:15:26.971Z,9.50
2022-08-22T18:18:00.925Z,8.70
2022-08-22T18:20:34.945Z,7.90
2022-08-22T18:23:21.411Z,8.30
2022-08-22T18:26:15.077Z,8.20
2022-08-22T18:28:50.569Z,8.10
2022-08-22T18:31:37.767Z,8.90
2022-08-22T18:34:15.413Z,9.70
2022-08-22T18:36:54.933Z,11.10
2022-08-22T18:39:29.980Z,10.40
2022-08-22T18:42:04.974Z,11.00
2022-08-22T18:44:40.091Z,9.80
2022-08-22T18:47:16.552Z,7.80
2022-08-22T18:49:54.810Z,8.90
2022-08-22T18:52:40.045Z,8.50
2022-08-22T18:55:40.760Z,10.50
2022-08-22T18:59:05.694Z,13.00
2022-08-22T19:01:56.907Z,12.20
2022-08-22T19:04:42.432Z,8.30
2022-08-22T19:07:40.733Z,7.50
2022-08-22T19:10:30.198Z,7.40
2022-08-22T19:13:17.485Z,6.50
2022-08-22T19:15:55.559Z,6.70
2022-08-22T19:18:34.744Z,6.90
2022-08-22T19:21:41.618Z,7.10
2022-08-22T19:24:33.551Z,6.80
2022-08-22T19:27:30.930Z,9.30
2022-08-22T19:30:06.768Z,9.70
2022-08-22T19:33:03.261Z,12.00
2022-08-22T19:35:53.875Z,14.90
2022-08-22T19:38:58.178Z,18.90
2022-08-22T19:41:47.818Z,24.50
2022-08-22T19:44:42.412Z,24.90
2022-08-22T19:47:27.027Z,23.10
2022-08-22T19:50:09.247Z,22.20
2022-08-22T19:52:50.981Z,19.00
2022-08-22T19:55:27.443Z,20.50
2022-08-22T19:58:02.634Z,21.40
2022-08-22T20:00:52.845Z,21.60
2022-08-22T20:03:32.898Z,18.90
2022-08-22T20:06:13.768Z,17.40
2022-08-22T20:09:08.756Z,16.00
2022-08-22T20:11:45.666Z,16.70
2022-08-22T20:14:25.028Z,15.90
2022-08-22T20:17:11.944Z,18.90
2022-08-22T20:22:46.674Z,18.00
2022-08-22T20:25:42.543Z,16.40
2022-08-22T20:28:22.169Z,16.50
2022-08-22T20:33:28.673Z,15.60
2022-08-22T20:36:02.266Z,17.70
2022-08-22T20:38:41.684Z,17.60
2022-08-22T20:41:30.727Z,16.80
2022-08-22T20:44:11.451Z,19.60
2022-08-22T20:46:53.155Z,21.90
2022-08-22T20:49:28.572Z,20.60
2022-08-22T20:52:02.396Z,16.40
2022-08-22T20:54:34.759Z,14.60
2022-08-22T20:57:16.261Z,16.50
2022-08-22T20:59:54.017Z,16.10
2022-08-22T21:02:27.377Z,17.40
2022-08-22T21:05:02.177Z,17.60
2022-08-22T21:07:35.970Z,15.10
2022-08-22T21:10:26.715Z,13.00
2022-08-22T21:13:07.151Z,13.20
2022-08-22T21:15:40.733Z,16.40
2022-08-22T21:18:13.272Z,18.20
2022-08-22T21:20:45.068Z,15.90
2022-08-22T21:23:17.449Z,21.70
2022-08-22T21:25:56.749Z,20.70
2022-08-22T21:28:34.346Z,26.00
2022-08-22T21:31:13.128Z,29.70
2022-08-22T21:33:49.989Z,30.10
2022-08-22T21:36:22.847Z,27.70
2022-08-22T21:38:56.912Z,28.30
2022-08-22T21:41:40.008Z,27.30
2022-08-22T21:44:30.259Z,25.00
2022-08-22T21:47:19.094Z,23.70
2022-08-22T21:50:09.865Z,22.20
2022-08-22T21:52:44.469Z,21.60
2022-08-22T21:55:26.801Z,21.30
2022-08-22T21:58:35.705Z,21.20
2022-08-22T22:01:29.595Z,20.10
2022-08-22T22:04:01.456Z,19.40
2022-08-22T22:06:33.292Z,22.80
2022-08-22T22:09:05.042Z,22.40
2022-08-22T22:14:06.988Z,21.10
2022-08-22T22:16:38.749Z,18.90
2022-08-22T22:19:11.544Z,19.90
2022-08-22T22:21:43.004Z,19.80
2022-08-22T22:26:44.757Z,20.00
2022-08-22T22:31:46.186Z,20.00
2022-08-22T22:34:18.265Z,21.80
2022-08-22T22:36:50.119Z,24.60
2022-08-22T22:39:22.049Z,21.60
2022-08-22T22:41:54.380Z,21.40
2022-08-22T22:44:26.213Z,21.20
2022-08-22T22:47:01.085Z,22.30
2022-08-22T22:49:32.905Z,21.70
2022-08-22T22:52:04.973Z,21.40
2022-08-22T22:54:36.720Z,20.90
2022-08-22T22:57:12.201Z,21.90
2022-08-22T22:59:45.886Z,19.90
2022-08-22T23:02:21.848Z,16.80
2022-08-22T23:04:56.125Z,18.30
2022-08-22T23:07:28.099Z,18.40
2022-08-22T23:09:59.751Z,19.90
2022-08-22T23:12:33.556Z,18.20
2022-08-22T23:15:05.425Z,18.30
2022-08-22T23:17:37.238Z,17.00
2022-08-22T23:20:10.068Z,15.80
2022-08-22T23:22:43.255Z,16.10
2022-08-22T23:25:14.927Z,16.50
2022-08-22T23:27:48.673Z,18.60
2022-08-22T23:30:25.585Z,17.20
2022-08-22T23:32:57.165Z,18.40
2022-08-22T23:37:59.012Z,16.60
2022-08-22T23:40:30.857Z,17.90
2022-08-22T23:43:02.813Z,16.90
2022-08-22T23:45:34.465Z,20.80
2022-08-22T23:50:36.982Z,21.20
2022-08-22T23:53:08.780Z,25.30
2022-08-22T23:58:10.526Z,24.90
